MDT,Max TemperatureF,Mean TemperatureF,Min TemperatureF,Max Dew PointF,MeanDew PointF,Min DewpointF,Max Humidity, Mean Humidity, Min Humidity, Max Sea Level PressureIn, Mean Sea Level PressureIn, Min Sea Level PressureIn, Max VisibilityMiles, Mean VisibilityMiles, Min VisibilityMiles, Max Wind SpeedMPH, Mean Wind SpeedMPH, Max Gust SpeedMPH,PrecipitationIn, CloudCover, Events, WindDirDegrees
2013-10-1,76,55,33,33,29,21,82,48,13,30.06,29.97,29.92,10,10,10,15,5,17,0.00,0,,102
2013-10-2,74,54,33,31,28,23,82,49,15,30.05,29.95,29.87,10,10,10,17,5,22,0.00,0,,120
2013-10-3,74,56,37,33,30,24,76,48,19,29.92,29.79,29.63,10,10,9,26,11,38,T,3,,181
2013-10-4,51,39,27,31,23,17,78,53,27,30.24,30.08,29.89,10,10,10,22,9,29,T,1,Rain,343
2013-10-5,59,42,25,23,20,17,81,50,19,30.32,30.27,30.21,10,10,10,22,8,29,0.00,0,,358
2013-10-6,67,45,23,28,21,15,75,47,18,30.38,30.29,30.19,10,10,10,15,6,18,0.00,0,,129
2013-10-7,72,50,28,31,26,23,78,47,16,30.27,30.15,29.99,10,10,10,13,5,13,0.00,0,,114
2013-10-8,73,54,34,29,27,23,70,44,17,30.01,29.88,29.77,10,10,10,25,7,41,0.00,0,,144
2013-10-9,70,54,37,42,29,17,64,40,15,29.89,29.79,29.67,10,10,6,38,9,55,0.02,3,Rain-Thunderstorm,159
2013-10-10,58,49,40,45,40,33,93,68,43,29.93,29.79,29.63,10,7,2,28,8,43,0.72,8,Rain-Thunderstorm,198
2013-10-11,56,45,34,38,35,33,92,68,43,30.11,30.02,29.93,10,10,10,14,2,17,0.00,5,,268
2013-10-12,62,46,29,36,31,27,92,60,27,30.18,30.07,30.01,10,10,10,17,3,23,0.00,0,,145
2013-10-13,71,56,41,37,33,26,73,50,26,30.01,29.91,29.78,10,10,10,24,11,31,0.00,2,,194
2013-10-14,58,46,33,32,30,26,82,57,32,30.11,30.01,29.86,10,10,10,17,6,23,0.00,1,,318
2013-10-15,58,42,26,32,27,23,85,56,27,30.13,30.05,29.97,10,10,10,17,4,24,0.00,4,,11
2013-10-16,54,40,25,28,23,18,85,55,24,30.18,30.13,30.05,10,10,10,21,5,26,0.00,0,,23
2013-10-17,57,41,24,23,19,14,81,49,17,30.21,30.09,29.99,10,10,10,15,5,21,0.00,0,,31
2013-10-18,56,41,25,23,16,5,81,47,13,30.20,30.11,29.99,10,10,10,22,10,30,0.00,0,,28
2013-10-19,60,42,23,23,18,15,69,45,21,30.26,30.16,30.09,10,10,10,16,6,25,0.00,0,,52
2013-10-20,64,45,25,23,19,14,75,46,16,30.10,30.00,29.89,10,10,10,17,7,36,0.00,0,,51
2013-10-21,65,46,26,24,18,8,75,43,11,30.18,30.09,29.99,10,10,10,15,6,20,0.00,0,,39
2013-10-22,65,45,24,26,21,17,74,46,18,30.27,30.20,30.15,10,10,10,10,5,13,0.00,0,,106
2013-10-23,69,47,25,26,23,17,81,48,15,30.27,30.15,30.07,10,10,10,12,4,16,0.00,0,,101
2013-10-24,70,50,30,33,25,22,72,45,18,30.21,30.13,30.06,10,10,10,21,5,28,T,2,,43
2013-10-25,64,52,40,43,37,32,89,66,42,30.26,30.17,30.08,10,10,9,18,5,25,0.02,3,Rain-Thunderstorm,15
2013-10-26,64,49,34,39,35,31,92,62,32,30.30,30.24,30.17,10,10,10,16,6,18,0.00,2,,96
2013-10-27,65,47,28,35,29,24,85,55,24,30.20,30.02,29.72,10,10,10,23,4,29,0.00,0,,168
2013-10-28,66,56,46,29,23,16,46,31,15,29.89,29.73,29.66,10,10,9,29,15,35,0.00,0,,168
2013-10-29,54,43,32,39,32,21,96,63,30,29.95,29.84,29.75,10,9,2,28,10,35,0.19,5,Rain,196
2013-10-30,48,39,30,35,31,27,96,81,65,30.01,29.96,29.91,10,10,9,21,4,28,T,6,Rain,340
2013-10-31,47,36,24,28,24,21,92,67,41,30.17,30.12,30.02,10,10,10,13,5,18,0.00,2,,41